Time;durP1;ratioP1;P1;durP2;ratioP2;P2;SDS_P1;SDS_P2;PMS_P1;PMS_P2;Temp;Humidity;BMP_temperature;BMP_pressure;BME280_temperature;BME280_humidity;BME280_pressure;Samples;Min_cycle;Max_cycle;Signal;HPM_P1;HPM_P2
2021/10/03 00:00:51;;;;;;;10.73;9.82;;;11.50;76.40;;;;;;5018495;29;20132;-69
2021/10/03 00:03:24;;;;;;;11.27;10.27;;;11.50;76.20;;;;;;5018147;29;20859;-69
2021/10/03 00:05:59;;;;;;;10.70;9.77;;;11.50;78.20;;;;;;5018157;29;20069;-69
2021/10/03 00:08:31;;;;;;;11.40;10.40;;;11.50;78.60;;;;;;5017934;29;20487;-69
2021/10/03 00:11:04;;;;;;;11.50;10.60;;;11.50;79.00;;;;;;5018320;29;20057;-69
2021/10/03 00:13:37;;;;;;;11.23;10.23;;;11.50;78.60;;;;;;5018075;29;20064;-69
2021/10/03 00:16:10;;;;;;;10.95;9.98;;;11.50;79.80;;;;;;5018045;29;20521;-70
2021/10/03 00:18:42;;;;;;;10.98;10.10;;;11.50;79.20;;;;;;5018696;29;20041;-70
2021/10/03 00:21:15;;;;;;;11.10;10.07;;;11.50;79.20;;;;;;5017473;29;20053;-71
2021/10/03 00:23:48;;;;;;;10.90;10.00;;;11.50;79.20;;;;;;5017292;29;20069;-69
2021/10/03 00:26:20;;;;;;;10.88;9.98;;;11.60;78.40;;;;;;5003913;29;20417;-70
2021/10/03 00:28:52;;;;;;;10.48;9.68;;;11.50;79.30;;;;;;5018868;29;20053;-70
2021/10/03 00:31:24;;;;;;;10.75;9.80;;;11.50;78.80;;;;;;5017270;29;20161;-70
2021/10/03 00:33:56;;;;;;;10.63;9.82;;;11.60;79.50;;;;;;5018411;29;20788;-69
2021/10/03 00:36:27;;;;;;;10.82;9.80;;;11.60;77.90;;;;;;5016702;29;20061;-69
2021/10/03 00:38:59;;;;;;;11.40;10.27;;;11.60;78.40;;;;;;5006282;29;20450;-70
2021/10/03 00:41:32;;;;;;;10.60;9.80;;;11.70;78.50;;;;;;5017525;29;20055;-70
2021/10/03 00:44:04;;;;;;;10.57;9.68;;;11.60;79.20;;;;;;5018024;29;20049;-69
2021/10/03 00:46:36;;;;;;;10.45;9.63;;;11.60;79.00;;;;;;5017370;29;20587;-70
2021/10/03 00:49:08;;;;;;;10.98;9.90;;;11.60;78.50;;;;;;5006035;29;20505;-71
2021/10/03 00:51:40;;;;;;;10.55;9.75;;;11.60;78.40;;;;;;5016819;29;20213;-70
2021/10/03 00:54:12;;;;;;;10.68;9.63;;;11.70;76.60;;;;;;5002700;29;20132;-71
2021/10/03 00:56:44;;;;;;;10.70;9.90;;;11.70;74.80;;;;;;5015041;29;20418;-69
2021/10/03 00:59:16;;;;;;;10.43;9.60;;;11.70;76.80;;;;;;5018459;29;20102;-70
2021/10/03 01:01:48;;;;;;;10.75;9.85;;;11.80;77.10;;;;;;5014016;29;20041;-70
2021/10/03 01:04:20;;;;;;;11.02;10.02;;;11.80;77.50;;;;;;5017237;29;20049;-69
2021/10/03 01:06:52;;;;;;;10.80;9.90;;;11.80;75.60;;;;;;5013968;29;20158;-71
2021/10/03 01:09:25;;;;;;;10.90;10.10;;;11.80;74.20;;;;;;5016741;29;20057;-71
2021/10/03 01:11:57;;;;;;;10.82;9.98;;;11.80;74.30;;;;;;5014777;29;20063;-70
2021/10/03 01:14:29;;;;;;;10.85;9.95;;;11.90;74.50;;;;;;5016892;29;21017;-70
2021/10/03 01:17:01;;;;;;;10.90;10.00;;;11.90;74.80;;;;;;5015672;29;20136;-69
2021/10/03 01:19:35;;;;;;;10.80;9.85;;;11.90;74.90;;;;;;5017803;29;20077;-70
2021/10/03 01:22:07;;;;;;;10.98;10.07;;;12.00;73.00;;;;;;5016569;29;20533;-70
2021/10/03 01:24:39;;;;;;;10.82;9.95;;;12.00;74.30;;;;;;5016739;29;20061;-70
2021/10/03 01:27:11;;;;;;;11.50;10.60;;;12.10;73.20;;;;;;5016005;29;20041;-68
2021/10/03 01:29:44;;;;;;;11.23;10.32;;;12.10;72.10;;;;;;5016872;29;20132;-70
2021/10/03 01:32:20;;;;;;;11.10;10.20;;;12.10;72.80;;;;;;5016466;29;20117;-70
2021/10/03 01:34:52;;;;;;;11.57;10.68;;;12.20;72.30;;;;;;5016370;29;20060;-69
2021/10/03 01:37:25;;;;;;;11.57;10.68;;;12.20;72.30;;;;;;5014984;29;20049;-70
2021/10/03 01:39:57;;;;;;;12.18;10.38;;;12.20;73.00;;;;;;5016778;29;20041;-70
2021/10/03 01:42:29;;;;;;;11.77;10.77;;;12.30;71.80;;;;;;5015683;29;20162;-72
2021/10/03 01:45:02;;;;;;;11.60;10.70;;;12.30;70.40;;;;;;5016233;29;20037;-70
2021/10/03 01:47:34;;;;;;;11.82;10.93;;;12.40;72.30;;;;;;4989200;29;20144;-71
2021/10/03 01:50:07;;;;;;;12.05;11.00;;;12.40;72.80;;;;;;5015758;29;20049;-70
2021/10/03 01:52:38;;;;;;;12.18;11.27;;;12.40;71.20;;;;;;5015844;29;20140;-70
2021/10/03 01:55:15;;;;;;;12.07;11.07;;;12.50;69.90;;;;;;5015809;29;20473;-72
2021/10/03 01:57:47;;;;;;;12.02;11.02;;;12.60;70.00;;;;;;5014190;29;20140;-71
2021/10/03 02:00:19;;;;;;;11.93;10.93;;;12.60;69.40;;;;;;5016166;29;20056;-70
2021/10/03 02:03:00;;;;;;;11.95;10.75;;;12.60;70.80;;;;;;5004381;29;20106;-71
2021/10/03 02:05:43;;;;;;;12.00;11.00;;;12.70;69.80;;;;;;5016103;29;20248;-71
2021/10/03 02:08:16;;;;;;;12.35;11.35;;;12.70;68.50;;;;;;5013643;29;20053;-71
2021/10/03 02:10:51;;;;;;;12.05;11.00;;;12.70;68.70;;;;;;5016181;29;20069;-71
2021/10/03 02:13:23;;;;;;;11.50;10.60;;;12.80;69.00;;;;;;5016049;29;20479;-71
2021/10/03 02:15:55;;;;;;;11.73;10.82;;;12.80;69.50;;;;;;5015335;29;20140;-71
2021/10/03 02:18:36;;;;;;;11.43;10.52;;;12.80;69.80;;;;;;5019130;29;20089;-71
2021/10/03 02:21:09;;;;;;;11.73;10.73;;;12.80;70.90;;;;;;5020727;29;20436;-70
2021/10/03 02:23:44;;;;;;;12.00;10.95;;;12.80;69.90;;;;;;5019747;29;20530;-73
2021/10/03 02:26:17;;;;;;;11.63;10.63;;;12.70;70.90;;;;;;5019768;29;20065;-72
2021/10/03 02:28:49;;;;;;;11.38;10.48;;;12.70;70.70;;;;;;5020563;29;20046;-72
2021/10/03 02:31:21;;;;;;;11.70;10.70;;;12.70;71.20;;;;;;5019663;29;20833;-71
2021/10/03 02:33:53;;;;;;;11.93;11.02;;;12.60;71.00;;;;;;5021495;29;20056;-70
2021/10/03 02:36:26;;;;;;;11.75;10.85;;;12.60;71.00;;;;;;5019852;29;20134;-70
2021/10/03 02:38:58;;;;;;;11.98;10.90;;;12.60;71.40;;;;;;5018926;29;20054;-70
2021/10/03 02:41:30;;;;;;;11.85;10.95;;;12.60;71.60;;;;;;5020205;29;20248;-71
2021/10/03 02:44:03;;;;;;;11.45;10.55;;;12.50;71.70;;;;;;5019159;29;20078;-70
2021/10/03 02:46:35;;;;;;;11.30;10.40;;;12.50;71.60;;;;;;5019160;29;20053;-71
2021/10/03 02:49:07;;;;;;;10.85;9.95;;;12.50;72.00;;;;;;5020131;29;20053;-71
2021/10/03 02:51:39;;;;;;;11.40;10.50;;;12.50;71.60;;;;;;5006772;29;20152;-70
2021/10/03 02:54:11;;;;;;;11.75;10.73;;;12.50;71.60;;;;;;5020093;29;20512;-71
2021/10/03 02:56:43;;;;;;;11.30;10.40;;;12.50;71.80;;;;;;5018785;29;20041;-71
2021/10/03 02:59:15;;;;;;;12.18;11.10;;;12.50;72.10;;;;;;5019298;29;20057;-71
2021/10/03 03:01:46;;;;;;;12.30;11.07;;;12.50;71.70;;;;;;5018763;29;20049;-70
2021/10/03 03:04:18;;;;;;;10.70;9.77;;;12.50;71.30;;;;;;5020166;29;20050;-71
2021/10/03 03:06:51;;;;;;;10.80;9.90;;;12.60;70.80;;;;;;5017571;29;20077;-71
2021/10/03 03:09:22;;;;;;;10.82;9.60;;;12.60;70.80;;;;;;5019579;29;20049;-72
2021/10/03 03:11:54;;;;;;;10.88;9.85;;;12.60;71.10;;;;;;5019471;29;20266;-71
2021/10/03 03:14:26;;;;;;;11.00;10.00;;;12.60;69.80;;;;;;5019883;29;20056;-70
2021/10/03 03:17:14;;;;;;;10.90;9.77;;;12.70;70.70;;;;;;5018517;29;20045;-72
2021/10/03 03:19:46;;;;;;;11.00;10.00;;;12.70;71.40;;;;;;5004946;29;20053;-70
2021/10/03 03:22:18;;;;;;;10.80;10.00;;;12.60;71.60;;;;;;5019108;29;20136;-70
2021/10/03 03:24:50;;;;;;;10.30;9.50;;;12.60;71.50;;;;;;5005338;29;20052;-70
2021/10/03 03:27:22;;;;;;;10.50;9.60;;;12.60;71.70;;;;;;5018819;29;20054;-71
2021/10/03 03:29:54;;;;;;;10.70;9.73;;;12.60;71.70;;;;;;5017128;29;20188;-70
2021/10/03 03:32:26;;;;;;;10.75;9.85;;;12.60;71.30;;;;;;5018543;29;20094;-71
2021/10/03 03:34:58;;;;;;;10.77;9.88;;;12.60;71.50;;;;;;5019137;29;20144;-71
2021/10/03 03:37:30;;;;;;;10.50;9.50;;;12.50;72.00;;;;;;5006024;29;20562;-71
2021/10/03 03:40:05;;;;;;;10.77;9.90;;;12.50;72.30;;;;;;5018152;29;20052;-70
2021/10/03 03:42:38;;;;;;;10.68;9.88;;;12.50;71.90;;;;;;5019758;29;20144;-71
2021/10/03 03:45:10;;;;;;;10.43;9.43;;;12.50;71.00;;;;;;5017705;29;20128;-70
2021/10/03 03:47:42;;;;;;;11.40;10.40;;;12.60;70.40;;;;;;5018391;29;20701;-70
2021/10/03 03:50:15;;;;;;;10.50;9.60;;;12.60;71.10;;;;;;5016683;29;20050;-70
2021/10/03 03:52:47;;;;;;;11.35;10.25;;;12.60;71.70;;;;;;5017848;29;20152;-70
2021/10/03 03:55:19;;;;;;;11.27;9.93;;;12.50;72.20;;;;;;5017777;29;20109;-70
2021/10/03 03:57:52;;;;;;;10.95;10.07;;;12.50;71.90;;;;;;5016765;29;20132;-70
2021/10/03 04:00:24;;;;;;;10.77;9.88;;;12.50;72.10;;;;;;5016764;29;20753;-70
2021/10/03 04:02:55;;;;;;;12.15;10.93;;;12.50;72.00;;;;;;5017463;29;20061;-72
2021/10/03 04:05:28;;;;;;;11.27;10.30;;;12.50;72.50;;;;;;5017371;29;20702;-70
2021/10/03 04:08:00;;;;;;;11.05;10.10;;;12.50;72.10;;;;;;5017235;29;20584;-69
2021/10/03 04:10:31;;;;;;;11.27;10.38;;;12.50;71.50;;;;;;5017364;29;20049;-69
2021/10/03 04:13:03;;;;;;;11.30;10.43;;;12.50;71.20;;;;;;5018529;29;20056;-69
2021/10/03 04:15:35;;;;;;;11.55;10.48;;;12.60;70.00;;;;;;5018367;29;20049;-69
2021/10/03 04:18:08;;;;;;;11.20;10.32;;;12.60;70.70;;;;;;5017110;29;20048;-69
2021/10/03 04:20:40;;;;;;;11.15;10.25;;;12.60;70.90;;;;;;5005376;29;20136;-69
2021/10/03 04:23:12;;;;;;;11.27;10.13;;;12.60;70.60;;;;;;5017541;29;20169;-69
2021/10/03 04:25:44;;;;;;;11.10;10.10;;;12.60;71.80;;;;;;5017729;29;20485;-68
2021/10/03 04:28:16;;;;;;;10.50;9.70;;;12.60;71.20;;;;;;5018089;29;20053;-69
2021/10/03 04:30:48;;;;;;;10.95;10.05;;;12.60;71.00;;;;;;5018312;29;20133;-70
2021/10/03 04:33:20;;;;;;;11.10;10.10;;;12.60;70.80;;;;;;5018215;29;20088;-69
2021/10/03 04:35:52;;;;;;;10.95;9.95;;;12.60;71.20;;;;;;5017047;29;20056;-71
2021/10/03 04:38:24;;;;;;;11.18;10.30;;;12.60;71.10;;;;;;5016736;29;20546;-71
2021/10/03 04:40:56;;;;;;;10.98;9.98;;;12.60;70.40;;;;;;5016749;29;20060;-69
2021/10/03 04:43:28;;;;;;;10.60;9.60;;;12.60;69.80;;;;;;5017435;29;20084;-69
2021/10/03 04:46:00;;;;;;;10.80;9.90;;;12.70;70.60;;;;;;5017469;29;20133;-70
2021/10/03 04:48:32;;;;;;;11.85;10.10;;;12.70;70.30;;;;;;5017619;29;20041;-70
2021/10/03 04:51:04;;;;;;;11.38;10.38;;;12.70;71.00;;;;;;5016403;29;20479;-71
2021/10/03 04:53:36;;;;;;;11.18;10.27;;;12.70;71.40;;;;;;5017082;29;20053;-70
2021/10/03 04:56:12;;;;;;;10.77;9.88;;;12.70;71.20;;;;;;5016753;29;20064;-69
2021/10/03 04:58:44;;;;;;;11.20;10.20;;;12.70;71.00;;;;;;5017132;29;20289;-70
2021/10/03 05:01:17;;;;;;;10.55;9.75;;;12.70;70.80;;;;;;5016558;29;20179;-70
2021/10/03 05:03:50;;;;;;;10.50;9.65;;;12.70;70.80;;;;;;5016385;29;20045;-71
2021/10/03 05:06:24;;;;;;;11.02;10.00;;;12.70;71.20;;;;;;5016886;29;20127;-70
2021/10/03 05:08:55;;;;;;;10.93;9.90;;;12.70;70.30;;;;;;5016797;29;20538;-70
2021/10/03 05:11:27;;;;;;;11.25;10.15;;;12.70;70.30;;;;;;5016219;29;21439;-70
2021/10/03 05:14:05;;;;;;;10.48;9.68;;;12.70;71.10;;;;;;5018680;29;20117;-70
2021/10/03 05:16:37;;;;;;;10.65;9.73;;;12.60;71.10;;;;;;4989746;29;20049;-70
2021/10/03 05:19:09;;;;;;;10.65;9.85;;;12.70;71.10;;;;;;5018362;29;20053;-71
2021/10/03 05:21:41;;;;;;;11.63;10.52;;;12.60;71.00;;;;;;5016662;29;20137;-70
2021/10/03 05:24:13;;;;;;;10.70;9.90;;;12.60;71.20;;;;;;4992925;29;20383;-72
2021/10/03 05:26:45;;;;;;;10.45;9.55;;;12.60;70.70;;;;;;5016951;29;20059;-68
2021/10/03 05:29:17;;;;;;;10.20;9.40;;;12.70;70.30;;;;;;5004783;29;20081;-68
2021/10/03 05:31:49;;;;;;;10.13;9.32;;;12.70;70.10;;;;;;5016216;29;20053;-68
2021/10/03 05:34:21;;;;;;;10.43;9.63;;;12.80;67.90;;;;;;5017977;29;20059;-67
2021/10/03 05:36:53;;;;;;;10.52;9.45;;;12.80;68.90;;;;;;5015767;29;20049;-68
2021/10/03 05:39:25;;;;;;;10.55;9.65;;;12.90;68.90;;;;;;5016783;29;20055;-68
2021/10/03 05:41:57;;;;;;;10.20;9.40;;;12.90;70.00;;;;;;5015836;29;20159;-68
2021/10/03 05:44:29;;;;;;;10.73;9.82;;;12.90;70.20;;;;;;5017806;29;20054;-68
2021/10/03 05:47:01;;;;;;;10.77;9.77;;;12.90;70.60;;;;;;5015745;29;20450;-68
2021/10/03 05:49:32;;;;;;;10.52;9.55;;;12.80;70.40;;;;;;5017717;29;20128;-68
2021/10/03 05:52:05;;;;;;;10.32;9.32;;;12.80;70.30;;;;;;5016077;29;20049;-68
2021/10/03 05:54:37;;;;;;;10.23;9.32;;;12.80;70.10;;;;;;5017958;29;20124;-68
2021/10/03 05:57:09;;;;;;;10.40;9.52;;;12.90;70.30;;;;;;5016528;29;20610;-68
2021/10/03 05:59:41;;;;;;;10.20;9.20;;;13.00;69.60;;;;;;5015484;29;20053;-68
2021/10/03 06:02:13;;;;;;;10.70;9.80;;;13.00;69.60;;;;;;5014436;29;20048;-68
2021/10/03 06:04:45;;;;;;;10.55;9.65;;;13.10;69.20;;;;;;5017071;29;20128;-68
2021/10/03 06:07:17;;;;;;;10.45;9.55;;;13.20;70.10;;;;;;5013845;29;20053;-68
2021/10/03 06:09:49;;;;;;;10.43;9.43;;;13.30;70.40;;;;;;5004066;29;20140;-69
2021/10/03 06:12:21;;;;;;;10.98;10.00;;;13.30;70.50;;;;;;5015012;29;20128;-69
2021/10/03 06:14:53;;;;;;;10.70;9.80;;;13.40;69.20;;;;;;5006892;29;20060;-69
2021/10/03 06:17:25;;;;;;;10.48;9.57;;;13.40;68.90;;;;;;4986939;29;20161;-69
2021/10/03 06:19:57;;;;;;;10.70;9.80;;;13.50;69.60;;;;;;5015610;29;20516;-69
2021/10/03 06:22:29;;;;;;;10.98;10.07;;;13.50;69.40;;;;;;5014948;29;20598;-69
2021/10/03 06:25:01;;;;;;;10.20;9.30;;;13.60;69.10;;;;;;5015692;29;20069;-68
2021/10/03 06:27:33;;;;;;;10.50;9.70;;;13.70;68.70;;;;;;5013539;29;20144;-69
2021/10/03 06:30:06;;;;;;;10.77;9.88;;;13.80;68.60;;;;;;5015041;29;20046;-69
2021/10/03 06:32:38;;;;;;;10.82;10.02;;;13.90;68.40;;;;;;5018306;29;20053;-69
2021/10/03 06:35:10;;;;;;;11.50;10.50;;;14.00;69.40;;;;;;5001528;29;20050;-69
2021/10/03 06:37:42;;;;;;;11.13;10.27;;;14.10;69.80;;;;;;5014863;29;20124;-68
2021/10/03 06:40:14;;;;;;;11.50;10.60;;;14.20;69.00;;;;;;5015628;29;20133;-70
2021/10/03 06:42:46;;;;;;;11.73;10.82;;;14.40;69.40;;;;;;5003531;29;20049;-68
2021/10/03 06:45:20;;;;;;;11.55;10.60;;;14.60;68.50;;;;;;5015017;29;20152;-70
2021/10/03 06:47:52;;;;;;;14.73;13.43;;;14.80;69.40;;;;;;5015880;29;20041;-71
2021/10/03 06:50:24;;;;;;;13.45;12.27;;;14.90;69.40;;;;;;5015529;29;20083;-70
2021/10/03 06:52:55;;;;;;;11.65;10.75;;;15.20;69.30;;;;;;5016515;29;20038;-69
2021/10/03 06:55:27;;;;;;;11.98;11.00;;;15.40;70.20;;;;;;5015166;29;20045;-70
2021/10/03 06:58:03;;;;;;;12.38;11.40;;;15.70;71.00;;;;;;5013128;29;20934;-69
2021/10/03 07:00:35;;;;;;;12.43;11.52;;;15.90;70.00;;;;;;5015013;29;20144;-70
2021/10/03 07:03:07;;;;;;;12.52;11.63;;;16.00;68.90;;;;;;4992058;29;20081;-70
2021/10/03 07:05:39;;;;;;;12.18;11.18;;;16.30;66.80;;;;;;5005123;29;20086;-70
2021/10/03 07:08:12;;;;;;;12.68;11.70;;;16.40;68.30;;;;;;5004029;29;20140;-69
2021/10/03 07:10:45;;;;;;;12.63;11.70;;;16.60;68.40;;;;;;5018124;29;20065;-70
2021/10/03 07:13:17;;;;;;;12.80;11.90;;;16.80;65.60;;;;;;5006598;29;20069;-70
2021/10/03 07:15:49;;;;;;;13.57;12.48;;;16.80;67.80;;;;;;4991499;29;20113;-68
2021/10/03 07:18:21;;;;;;;13.15;12.18;;;16.90;67.50;;;;;;4988914;29;20122;-70
2021/10/03 07:20:53;;;;;;;12.88;11.88;;;16.90;72.30;;;;;;5018621;29;20077;-70
2021/10/03 07:23:28;;;;;;;12.93;11.88;;;16.90;67.00;;;;;;5018856;29;20144;-70
2021/10/03 07:26:00;;;;;;;13.20;12.20;;;16.90;64.60;;;;;;5018103;29;20198;-69
2021/10/03 07:28:32;;;;;;;12.90;12.00;;;16.80;65.30;;;;;;5016291;29;20517;-70
2021/10/03 07:31:05;;;;;;;12.77;11.88;;;16.70;65.40;;;;;;5018728;29;20124;-69
2021/10/03 07:33:37;;;;;;;12.93;11.93;;;16.70;64.80;;;;;;5016615;29;20045;-71
2021/10/03 07:36:10;;;;;;;12.60;11.60;;;16.60;64.90;;;;;;4994257;29;20045;-71
2021/10/03 07:38:43;;;;;;;12.68;11.68;;;16.60;63.60;;;;;;5016496;29;20053;-69
2021/10/03 07:41:16;;;;;;;13.13;12.13;;;16.70;64.60;;;;;;5001847;29;20050;-70
2021/10/03 07:43:49;;;;;;;13.02;12.02;;;16.70;64.70;;;;;;5018698;29;20056;-70
2021/10/03 07:46:21;;;;;;;12.90;11.90;;;16.80;64.10;;;;;;5017826;29;20805;-70
2021/10/03 07:48:53;;;;;;;13.00;12.10;;;16.80;65.00;;;;;;5018122;29;20057;-70
2021/10/03 07:51:25;;;;;;;13.57;12.38;;;16.90;66.80;;;;;;5018351;29;20150;-70
2021/10/03 07:53:57;;;;;;;12.98;11.98;;;16.90;66.70;;;;;;5016719;29;20049;-71
2021/10/03 07:56:29;;;;;;;12.75;11.85;;;17.00;67.00;;;;;;5017219;29;20520;-71
2021/10/03 07:59:01;;;;;;;12.98;11.88;;;17.00;66.00;;;;;;5018264;29;20050;-70
2021/10/03 08:01:33;;;;;;;13.05;12.05;;;17.10;66.70;;;;;;5017086;29;20045;-72
2021/10/03 08:04:05;;;;;;;13.40;12.40;;;17.20;67.50;;;;;;5006705;29;20424;-70
2021/10/03 08:06:36;;;;;;;13.82;12.82;;;17.20;66.60;;;;;;5017802;29;20046;-70
2021/10/03 08:09:09;;;;;;;13.20;12.10;;;17.30;66.90;;;;;;5018328;29;20114;-69
2021/10/03 08:11:41;;;;;;;13.40;12.40;;;17.40;66.90;;;;;;5017494;29;20045;-69
2021/10/03 08:14:13;;;;;;;13.85;12.85;;;17.40;64.40;;;;;;5017401;29;20076;-70
2021/10/03 08:16:45;;;;;;;13.75;12.75;;;17.50;65.20;;;;;;5016649;29;20425;-69
2021/10/03 08:19:17;;;;;;;13.50;12.43;;;17.60;64.00;;;;;;4980908;29;20057;-69
2021/10/03 08:21:49;;;;;;;13.95;12.95;;;17.60;63.20;;;;;;5017768;29;20057;-70
2021/10/03 08:24:21;;;;;;;14.25;13.05;;;17.70;63.90;;;;;;5019107;29;20133;-70
2021/10/03 08:26:53;;;;;;;13.82;12.82;;;17.80;61.20;;;;;;5017803;29;20814;-70
2021/10/03 08:29:25;;;;;;;14.40;13.27;;;17.80;61.90;;;;;;5018780;29;20056;-69
2021/10/03 08:31:56;;;;;;;14.20;13.15;;;17.90;63.70;;;;;;5017577;29;20128;-71
2021/10/03 08:34:28;;;;;;;14.25;13.23;;;18.00;60.80;;;;;;5018611;29;20061;-69
2021/10/03 08:37:00;;;;;;;13.82;12.82;;;18.10;60.60;;;;;;5007814;29;20045;-69
2021/10/03 08:39:32;;;;;;;13.63;12.63;;;18.20;60.90;;;;;;5018919;29;20061;-70
2021/10/03 08:42:04;;;;;;;14.35;13.25;;;18.40;61.10;;;;;;5016363;29;20046;-70
2021/10/03 08:44:37;;;;;;;14.68;13.60;;;18.50;59.20;;;;;;5019145;29;20137;-69
2021/10/03 08:47:10;;;;;;;14.02;13.00;;;18.60;58.10;;;;;;5003423;29;20059;-70
2021/10/03 08:49:42;;;;;;;14.25;13.25;;;18.70;60.10;;;;;;5005841;29;20151;-71
2021/10/03 08:52:16;;;;;;;14.63;13.27;;;18.70;58.50;;;;;;5004103;29;20053;-69
2021/10/03 08:54:48;;;;;;;14.85;13.75;;;18.90;58.50;;;;;;5015464;29;20672;-69
2021/10/03 08:57:20;;;;;;;14.35;13.20;;;19.00;57.60;;;;;;5014824;29;20515;-69
2021/10/03 09:00:01;;;;;;;14.52;13.38;;;19.10;56.60;;;;;;5004072;29;20049;-70
2021/10/03 09:02:52;;;;;;;14.82;13.75;;;19.30;59.00;;;;;;5015117;29;20148;-70
2021/10/03 09:05:25;;;;;;;14.38;13.38;;;19.30;56.90;;;;;;5005921;29;20037;-70
2021/10/03 09:07:58;;;;;;;14.40;13.40;;;19.40;58.70;;;;;;5018223;29;20049;-70
2021/10/03 09:10:58;;;;;;;14.80;13.80;;;19.50;55.50;;;;;;5016355;29;20109;-69
2021/10/03 09:13:33;;;;;;;14.25;13.25;;;19.60;55.80;;;;;;5014602;29;20042;-69
2021/10/03 09:16:25;;;;;;;14.95;13.90;;;19.80;53.70;;;;;;5015123;29;20041;-71
2021/10/03 09:19:12;;;;;;;14.85;13.85;;;20.00;56.30;;;;;;5016976;29;20054;-69
2021/10/03 09:21:45;;;;;;;15.18;14.10;;;20.10;56.00;;;;;;5018011;29;20761;-70
2021/10/03 09:24:20;;;;;;;15.07;13.88;;;20.50;53.00;;;;;;5018547;29;20069;-70
2021/10/03 09:27:01;;;;;;;14.43;13.43;;;20.70;51.20;;;;;;5015842;29;20069;-71
2021/10/03 09:29:36;;;;;;;14.30;13.20;;;20.80;45.30;;;;;;5008273;29;20061;-70
2021/10/03 09:32:11;;;;;;;14.40;13.40;;;20.90;49.30;;;;;;5014919;29;20091;-69
2021/10/03 09:34:52;;;;;;;14.40;13.40;;;20.90;51.80;;;;;;5015396;29;20053;-69
2021/10/03 09:37:25;;;;;;;;;;;21.00;54.20;;;;;;5015560;29;20620;-69
2021/10/03 09:40:12;;;;;;;14.80;13.63;;;21.00;54.20;;;;;;5015470;29;20876;-69
2021/10/03 09:43:12;;;;;;;14.45;13.43;;;21.10;52.00;;;;;;5017007;29;20060;-69
2021/10/03 09:45:44;;;;;;;14.90;13.80;;;21.20;53.20;;;;;;5013593;29;20050;-68
2021/10/03 09:48:16;;;;;;;14.55;13.48;;;21.20;53.00;;;;;;5017364;29;20181;-69
2021/10/03 09:50:48;;;;;;;14.88;13.88;;;21.30;53.20;;;;;;5004162;29;20052;-69
2021/10/03 09:53:20;;;;;;;14.45;13.45;;;21.40;54.40;;;;;;5004385;29;20475;-69
2021/10/03 09:55:52;;;;;;;15.07;14.07;;;21.40;56.80;;;;;;5016073;29;20158;-69
2021/10/03 09:58:24;;;;;;;14.85;13.85;;;21.50;55.60;;;;;;5003752;29;20077;-69
2021/10/03 10:00:57;;;;;;;15.52;14.32;;;21.60;55.70;;;;;;5015766;29;20578;-69
2021/10/03 10:03:30;;;;;;;15.30;14.20;;;21.50;54.70;;;;;;5016517;29;20053;-69
2021/10/03 10:06:02;;;;;;;15.38;14.35;;;21.60;51.80;;;;;;5016620;29;20056;-69
2021/10/03 10:08:36;;;;;;;15.43;14.23;;;21.50;53.60;;;;;;5017677;29;20045;-69
2021/10/03 10:11:22;;;;;;;14.73;13.73;;;21.50;55.90;;;;;;4988464;29;20073;-69
2021/10/03 10:13:56;;;;;;;15.07;14.07;;;21.50;52.50;;;;;;5017092;29;20049;-69
2021/10/03 10:16:38;;;;;;;14.80;13.77;;;21.50;55.20;;;;;;5014626;29;20134;-68
2021/10/03 10:19:28;;;;;;;14.82;13.77;;;21.40;57.00;;;;;;5018471;29;20055;-68
2021/10/03 10:22:15;;;;;;;15.32;13.98;;;21.40;57.60;;;;;;4997944;29;20532;-68
2021/10/03 10:24:52;;;;;;;14.65;13.65;;;21.40;60.10;;;;;;5014528;29;20142;-68
2021/10/03 10:27:25;;;;;;;14.63;13.63;;;21.40;59.70;;;;;;5012525;29;20042;-68
2021/10/03 10:30:00;;;;;;;15.02;14.02;;;21.40;57.00;;;;;;5014449;29;20560;-68
2021/10/03 10:32:54;;;;;;;15.00;13.90;;;21.40;60.00;;;;;;5014344;29;20132;-70
2021/10/03 10:35:28;;;;;;;15.15;14.05;;;21.40;60.90;;;;;;5015099;29;22840;-69
2021/10/03 10:38:03;;;;;;;14.60;13.60;;;21.40;61.40;;;;;;5015629;29;20132;-68
2021/10/03 10:40:35;;;;;;;15.00;13.90;;;21.40;60.60;;;;;;5016282;29;20058;-69
2021/10/03 10:43:07;;;;;;;14.82;13.73;;;21.40;62.70;;;;;;5019774;29;20492;-69
2021/10/03 10:45:40;;;;;;;14.40;13.40;;;21.40;59.20;;;;;;5019628;29;20044;-69
2021/10/03 10:48:16;;;;;;;14.75;13.75;;;21.40;58.30;;;;;;5007240;29;20042;-68
2021/10/03 10:50:54;;;;;;;14.75;13.70;;;21.40;59.70;;;;;;5019469;29;20136;-69
2021/10/03 10:53:32;;;;;;;14.93;13.93;;;21.40;56.60;;;;;;5020381;29;20170;-68
2021/10/03 10:56:15;;;;;;;14.77;13.68;;;21.50;55.60;;;;;;5018800;29;20053;-68
2021/10/03 10:58:50;;;;;;;16.05;14.82;;;21.60;54.10;;;;;;5019442;29;20049;-69
2021/10/03 11:01:31;;;;;;;17.77;16.30;;;21.70;55.00;;;;;;5017781;29;20444;-69
2021/10/03 11:04:09;;;;;;;15.75;14.65;;;21.70;56.10;;;;;;5007420;29;20723;-69
2021/10/03 11:06:44;;;;;;;15.50;14.40;;;21.70;59.60;;;;;;4995881;29;20113;-68
2021/10/03 11:09:16;;;;;;;16.80;15.50;;;21.80;57.70;;;;;;5019248;29;20093;-68
2021/10/03 11:11:54;;;;;;;15.70;14.60;;;21.80;57.70;;;;;;4991771;29;20125;-69
2021/10/03 11:14:28;;;;;;;30.23;25.58;;;21.90;59.50;;;;;;5019424;29;20053;-69
2021/10/03 11:17:06;;;;;;;16.75;15.45;;;21.90;58.70;;;;;;5016017;29;20053;-68
2021/10/03 11:19:42;;;;;;;27.92;23.40;;;22.00;58.70;;;;;;5019602;29;20049;-69
2021/10/03 11:22:23;;;;;;;15.75;14.65;;;22.00;58.00;;;;;;5020633;29;20420;-68
2021/10/03 11:24:56;;;;;;;15.68;14.57;;;22.10;57.50;;;;;;5019656;29;20056;-70
2021/10/03 11:27:30;;;;;;;23.00;20.67;;;22.10;60.70;;;;;;4990148;29;20049;-69
2021/10/03 11:30:02;;;;;;;16.20;15.10;;;22.20;59.20;;;;;;4989960;29;20822;-69
2021/10/03 11:32:38;;;;;;;69.53;47.42;;;22.20;62.50;;;;;;4982441;29;20061;-70
2021/10/03 11:35:12;;;;;;;68.43;43.97;;;22.20;61.50;;;;;;5018744;29;20060;-68
2021/10/03 11:37:49;;;;;;;50.20;36.63;;;22.20;59.40;;;;;;5018920;29;20580;-68
2021/10/03 11:40:26;;;;;;;15.23;14.02;;;22.20;58.50;;;;;;5002446;29;20076;-67
2021/10/03 11:42:59;;;;;;;16.52;15.32;;;22.20;59.00;;;;;;5019355;29;20077;-69
2021/10/03 11:45:34;;;;;;;15.40;14.38;;;22.20;56.10;;;;;;5019045;29;20053;-70
2021/10/03 11:48:08;;;;;;;15.48;14.13;;;22.20;56.10;;;;;;5018357;29;20994;-69
2021/10/03 11:50:45;;;;;;;15.85;14.55;;;22.20;57.90;;;;;;5016854;29;20167;-69
2021/10/03 11:53:19;;;;;;;14.73;13.73;;;22.20;59.70;;;;;;5016769;29;20459;-69
2021/10/03 11:56:09;;;;;;;14.45;13.45;;;22.30;54.40;;;;;;5018041;29;20114;-69
2021/10/03 11:58:43;;;;;;;14.25;13.15;;;22.20;48.80;;;;;;5003748;29;20529;-68
2021/10/03 12:01:15;;;;;;;14.80;13.70;;;22.20;48.30;;;;;;5015003;29;20152;-68
2021/10/03 12:03:48;;;;;;;15.00;13.95;;;22.20;47.70;;;;;;5017240;29;20144;-68
2021/10/03 12:06:21;;;;;;;14.07;13.07;;;22.20;43.50;;;;;;5018308;29;20168;-70
2021/10/03 12:08:54;;;;;;;15.20;14.05;;;22.20;47.70;;;;;;5018900;29;20931;-69
2021/10/03 12:11:26;;;;;;;14.55;13.32;;;22.20;44.00;;;;;;5016728;29;20172;-69
2021/10/03 12:14:02;;;;;;;14.00;13.02;;;22.20;46.70;;;;;;5004051;29;20658;-68
2021/10/03 12:16:49;;;;;;;13.75;12.85;;;22.20;47.90;;;;;;4993209;29;20604;-68
2021/10/03 12:19:21;;;;;;;14.02;13.13;;;22.30;44.30;;;;;;4990088;29;20138;-68
2021/10/03 12:22:04;;;;;;;14.60;13.50;;;22.30;38.40;;;;;;5018957;29;20067;-68
2021/10/03 12:24:36;;;;;;;14.80;13.80;;;22.40;40.30;;;;;;5018526;29;20109;-72
2021/10/03 12:27:08;;;;;;;14.82;13.82;;;22.50;40.40;;;;;;5017454;29;20049;-69
2021/10/03 12:29:55;;;;;;;15.15;14.10;;;22.60;42.00;;;;;;5004149;29;20056;-67
2021/10/03 12:32:27;;;;;;;14.98;13.98;;;22.70;39.00;;;;;;5016041;29;20148;-70
2021/10/03 12:35:02;;;;;;;14.90;13.90;;;23.00;37.10;;;;;;5006318;29;20124;-68
2021/10/03 12:37:39;;;;;;;15.20;14.20;;;23.20;37.10;;;;;;5016564;29;20113;-68
2021/10/03 12:40:10;;;;;;;15.35;14.35;;;23.40;35.90;;;;;;5017522;29;20156;-69
2021/10/03 12:42:42;;;;;;;15.55;14.45;;;23.70;36.50;;;;;;5018753;29;20132;-68
2021/10/03 12:45:16;;;;;;;15.20;14.20;;;23.90;38.80;;;;;;5017529;29;20126;-68
2021/10/03 12:47:48;;;;;;;15.63;14.52;;;24.00;38.80;;;;;;5004558;29;20049;-69
2021/10/03 12:50:22;;;;;;;14.90;13.90;;;24.20;35.60;;;;;;5017652;29;20857;-69
2021/10/03 12:52:54;;;;;;;15.27;14.27;;;24.30;35.90;;;;;;5017556;29;20056;-68
2021/10/03 12:55:27;;;;;;;15.52;14.52;;;24.40;37.20;;;;;;5005274;29;20061;-68
2021/10/03 12:57:59;;;;;;;15.20;14.20;;;24.40;34.90;;;;;;5005310;29;21116;-69
2021/10/03 13:00:31;;;;;;;15.27;14.27;;;24.40;34.50;;;;;;5016861;29;20136;-70
2021/10/03 13:03:03;;;;;;;14.93;13.93;;;24.50;36.50;;;;;;4988264;29;20052;-70